sensor_id;sensor_type;location;lat;lon;timestamp;temperature;humidity
20610;DHT22;10463;52.378;9.688;2023-03-03T00:01:41;21.30;21.10
20610;DHT22;10463;52.378;9.688;2023-03-03T00:04:27;21.30;21.10
20610;DHT22;10463;52.378;9.688;2023-03-03T00:07:11;21.30;21.10
20610;DHT22;10463;52.378;9.688;2023-03-03T00:09:59;21.30;21.10
20610;DHT22;10463;52.378;9.688;2023-03-03T00:12:47;21.30;21.10
20610;DHT22;10463;52.378;9.688;2023-03-03T00:15:32;21.30;21.10
20610;DHT22;10463;52.378;9.688;2023-03-03T00:18:25;21.30;21.10
20610;DHT22;10463;52.378;9.688;2023-03-03T00:21:32;21.30;21.10
20610;DHT22;10463;52.378;9.688;2023-03-03T00:24:20;21.30;21.10
20610;DHT22;10463;52.378;9.688;2023-03-03T00:27:17;21.30;21.10
20610;DHT22;10463;52.378;9.688;2023-03-03T00:30:18;21.30;21.20
20610;DHT22;10463;52.378;9.688;2023-03-03T00:33:14;21.30;21.20
20610;DHT22;10463;52.378;9.688;2023-03-03T00:36:27;21.20;21.10
20610;DHT22;10463;52.378;9.688;2023-03-03T00:39:27;21.20;21.10
20610;DHT22;10463;52.378;9.688;2023-03-03T00:42:14;21.20;21.10
20610;DHT22;10463;52.378;9.688;2023-03-03T00:45:00;21.20;21.10
20610;DHT22;10463;52.378;9.688;2023-03-03T00:47:45;21.20;21.70
20610;DHT22;10463;52.378;9.688;2023-03-03T00:50:33;21.20;21.10
20610;DHT22;10463;52.378;9.688;2023-03-03T00:53:19;21.20;21.10
20610;DHT22;10463;52.378;9.688;2023-03-03T00:56:06;21.20;21.10
20610;DHT22;10463;52.378;9.688;2023-03-03T00:58:51;21.20;21.10
20610;DHT22;10463;52.378;9.688;2023-03-03T01:01:39;21.20;21.10
20610;DHT22;10463;52.378;9.688;2023-03-03T01:04:23;21.20;21.10
20610;DHT22;10463;52.378;9.688;2023-03-03T01:07:08;21.20;21.10
20610;DHT22;10463;52.378;9.688;2023-03-03T01:09:53;21.20;21.10
20610;DHT22;10463;52.378;9.688;2023-03-03T01:12:40;21.20;21.10
20610;DHT22;10463;52.378;9.688;2023-03-03T01:15:25;21.20;21.10
20610;DHT22;10463;52.378;9.688;2023-03-03T01:18:10;21.20;21.10
20610;DHT22;10463;52.378;9.688;2023-03-03T01:20:55;21.20;21.10
20610;DHT22;10463;52.378;9.688;2023-03-03T01:23:40;21.20;21.10
20610;DHT22;10463;52.378;9.688;2023-03-03T01:26:25;21.20;21.10
20610;DHT22;10463;52.378;9.688;2023-03-03T01:29:11;21.20;21.20
20610;DHT22;10463;52.378;9.688;2023-03-03T01:31:56;21.20;21.10
20610;DHT22;10463;52.378;9.688;2023-03-03T01:34:40;21.20;21.10
20610;DHT22;10463;52.378;9.688;2023-03-03T01:37:25;21.20;21.10
20610;DHT22;10463;52.378;9.688;2023-03-03T01:40:15;21.10;21.10
20610;DHT22;10463;52.378;9.688;2023-03-03T01:43:01;21.20;21.20
20610;DHT22;10463;52.378;9.688;2023-03-03T01:46:30;21.10;21.10
20610;DHT22;10463;52.378;9.688;2023-03-03T01:49:21;21.10;21.10
20610;DHT22;10463;52.378;9.688;2023-03-03T01:52:13;21.10;21.10
20610;DHT22;10463;52.378;9.688;2023-03-03T01:55:02;21.10;21.10
20610;DHT22;10463;52.378;9.688;2023-03-03T01:57:53;21.10;21.10
20610;DHT22;10463;52.378;9.688;2023-03-03T02:00:43;21.10;21.10
20610;DHT22;10463;52.378;9.688;2023-03-03T02:03:31;21.10;21.10
20610;DHT22;10463;52.378;9.688;2023-03-03T02:06:20;21.10;21.10
20610;DHT22;10463;52.378;9.688;2023-03-03T02:09:12;21.10;21.10
20610;DHT22;10463;52.378;9.688;2023-03-03T02:12:05;21.10;21.10
20610;DHT22;10463;52.378;9.688;2023-03-03T02:14:51;21.10;21.10
20610;DHT22;10463;52.378;9.688;2023-03-03T02:17:36;21.10;21.10
20610;DHT22;10463;52.378;9.688;2023-03-03T02:20:45;21.10;21.10
20610;DHT22;10463;52.378;9.688;2023-03-03T02:23:38;21.10;21.10
20610;DHT22;10463;52.378;9.688;2023-03-03T02:26:29;21.00;21.20
20610;DHT22;10463;52.378;9.688;2023-03-03T02:29:19;21.10;21.10
20610;DHT22;10463;52.378;9.688;2023-03-03T02:32:04;21.10;21.00
20610;DHT22;10463;52.378;9.688;2023-03-03T02:34:51;21.10;21.00
20610;DHT22;10463;52.378;9.688;2023-03-03T02:37:36;21.10;21.10
20610;DHT22;10463;52.378;9.688;2023-03-03T02:40:23;21.10;21.10
20610;DHT22;10463;52.378;9.688;2023-03-03T02:43:10;21.10;21.10
20610;DHT22;10463;52.378;9.688;2023-03-03T02:45:56;21.10;21.10
20610;DHT22;10463;52.378;9.688;2023-03-03T02:48:43;21.10;21.10
20610;DHT22;10463;52.378;9.688;2023-03-03T02:51:27;21.00;21.00
20610;DHT22;10463;52.378;9.688;2023-03-03T02:54:14;21.00;21.00
20610;DHT22;10463;52.378;9.688;2023-03-03T02:57:00;21.00;21.00
20610;DHT22;10463;52.378;9.688;2023-03-03T02:59:46;21.00;21.10
20610;DHT22;10463;52.378;9.688;2023-03-03T03:02:34;21.00;21.10
20610;DHT22;10463;52.378;9.688;2023-03-03T03:05:20;21.00;21.10
20610;DHT22;10463;52.378;9.688;2023-03-03T03:08:05;21.00;21.60
20610;DHT22;10463;52.378;9.688;2023-03-03T03:10:49;21.00;21.10
20610;DHT22;10463;52.378;9.688;2023-03-03T03:13:35;21.00;21.10
20610;DHT22;10463;52.378;9.688;2023-03-03T03:16:21;21.00;21.10
20610;DHT22;10463;52.378;9.688;2023-03-03T03:19:06;21.00;21.10
20610;DHT22;10463;52.378;9.688;2023-03-03T03:21:53;21.00;21.10
20610;DHT22;10463;52.378;9.688;2023-03-03T03:24:38;21.00;21.20
20610;DHT22;10463;52.378;9.688;2023-03-03T03:27:26;21.00;21.10
20610;DHT22;10463;52.378;9.688;2023-03-03T03:30:12;21.00;21.10
20610;DHT22;10463;52.378;9.688;2023-03-03T03:33:00;21.00;21.10
20610;DHT22;10463;52.378;9.688;2023-03-03T03:35:45;21.00;21.10
20610;DHT22;10463;52.378;9.688;2023-03-03T03:38:33;21.00;21.10
20610;DHT22;10463;52.378;9.688;2023-03-03T03:41:21;21.00;21.10
20610;DHT22;10463;52.378;9.688;2023-03-03T03:44:06;21.00;21.10
20610;DHT22;10463;52.378;9.688;2023-03-03T03:46:51;21.00;21.10
20610;DHT22;10463;52.378;9.688;2023-03-03T03:49:37;20.90;21.00
20610;DHT22;10463;52.378;9.688;2023-03-03T03:52:23;20.90;21.00
20610;DHT22;10463;52.378;9.688;2023-03-03T03:55:09;20.90;21.00
20610;DHT22;10463;52.378;9.688;2023-03-03T03:57:55;20.90;21.00
20610;DHT22;10463;52.378;9.688;2023-03-03T04:00:40;20.90;21.00
20610;DHT22;10463;52.378;9.688;2023-03-03T04:03:26;20.90;21.00
20610;DHT22;10463;52.378;9.688;2023-03-03T04:06:12;20.90;21.00
20610;DHT22;10463;52.378;9.688;2023-03-03T04:08:57;20.90;21.00
20610;DHT22;10463;52.378;9.688;2023-03-03T04:11:43;20.90;21.00
20610;DHT22;10463;52.378;9.688;2023-03-03T04:14:29;20.90;21.00
20610;DHT22;10463;52.378;9.688;2023-03-03T04:17:16;20.90;21.10
20610;DHT22;10463;52.378;9.688;2023-03-03T04:20:02;20.90;21.10
20610;DHT22;10463;52.378;9.688;2023-03-03T04:22:49;20.90;21.10
20610;DHT22;10463;52.378;9.688;2023-03-03T04:25:34;20.90;21.10
20610;DHT22;10463;52.378;9.688;2023-03-03T04:28:19;20.90;21.00
20610;DHT22;10463;52.378;9.688;2023-03-03T04:31:06;20.90;21.00
20610;DHT22;10463;52.378;9.688;2023-03-03T04:33:51;20.90;21.10
20610;DHT22;10463;52.378;9.688;2023-03-03T04:36:38;20.90;21.10
20610;DHT22;10463;52.378;9.688;2023-03-03T04:39:24;20.80;21.00
20610;DHT22;10463;52.378;9.688;2023-03-03T04:42:11;20.80;21.00
20610;DHT22;10463;52.378;9.688;2023-03-03T04:44:56;20.80;21.00
20610;DHT22;10463;52.378;9.688;2023-03-03T04:47:41;20.80;21.00
20610;DHT22;10463;52.378;9.688;2023-03-03T04:50:26;20.80;21.00
20610;DHT22;10463;52.378;9.688;2023-03-03T04:53:11;20.80;21.00
20610;DHT22;10463;52.378;9.688;2023-03-03T04:56:00;20.80;21.00
20610;DHT22;10463;52.378;9.688;2023-03-03T04:58:45;20.80;21.00
20610;DHT22;10463;52.378;9.688;2023-03-03T05:01:30;20.80;21.00
20610;DHT22;10463;52.378;9.688;2023-03-03T05:04:15;20.80;21.00
20610;DHT22;10463;52.378;9.688;2023-03-03T05:07:00;20.80;21.00
20610;DHT22;10463;52.378;9.688;2023-03-03T05:09:45;20.80;21.00
20610;DHT22;10463;52.378;9.688;2023-03-03T05:12:31;20.80;21.10
20610;DHT22;10463;52.378;9.688;2023-03-03T05:15:16;20.80;21.00
20610;DHT22;10463;52.378;9.688;2023-03-03T05:18:01;20.80;20.90
20610;DHT22;10463;52.378;9.688;2023-03-03T05:20:46;20.80;20.90
20610;DHT22;10463;52.378;9.688;2023-03-03T05:23:31;20.80;21.00
20610;DHT22;10463;52.378;9.688;2023-03-03T05:26:16;20.80;20.90
20610;DHT22;10463;52.378;9.688;2023-03-03T05:29:03;20.80;21.00
20610;DHT22;10463;52.378;9.688;2023-03-03T05:31:47;20.80;21.00
20610;DHT22;10463;52.378;9.688;2023-03-03T05:34:33;20.80;21.00
20610;DHT22;10463;52.378;9.688;2023-03-03T05:37:18;20.80;21.00
20610;DHT22;10463;52.378;9.688;2023-03-03T05:40:02;20.80;21.00
20610;DHT22;10463;52.378;9.688;2023-03-03T05:42:49;20.80;21.00
20610;DHT22;10463;52.378;9.688;2023-03-03T05:45:35;20.80;21.00
20610;DHT22;10463;52.378;9.688;2023-03-03T05:48:20;20.80;21.00
20610;DHT22;10463;52.378;9.688;2023-03-03T05:51:05;20.80;21.00
20610;DHT22;10463;52.378;9.688;2023-03-03T05:53:49;20.80;21.00
20610;DHT22;10463;52.378;9.688;2023-03-03T05:56:34;20.80;21.00
20610;DHT22;10463;52.378;9.688;2023-03-03T05:59:18;20.80;21.00
20610;DHT22;10463;52.378;9.688;2023-03-03T06:02:05;20.80;21.50
20610;DHT22;10463;52.378;9.688;2023-03-03T06:04:50;20.70;21.00
20610;DHT22;10463;52.378;9.688;2023-03-03T06:07:35;20.70;21.00
20610;DHT22;10463;52.378;9.688;2023-03-03T06:10:19;20.80;21.10
20610;DHT22;10463;52.378;9.688;2023-03-03T06:13:09;20.70;21.00
20610;DHT22;10463;52.378;9.688;2023-03-03T06:15:53;20.70;21.00
20610;DHT22;10463;52.378;9.688;2023-03-03T06:18:39;20.80;21.00
20610;DHT22;10463;52.378;9.688;2023-03-03T06:21:24;20.70;21.00
20610;DHT22;10463;52.378;9.688;2023-03-03T06:24:08;20.70;21.00
20610;DHT22;10463;52.378;9.688;2023-03-03T06:26:53;20.70;21.00
20610;DHT22;10463;52.378;9.688;2023-03-03T06:29:38;20.70;21.00
20610;DHT22;10463;52.378;9.688;2023-03-03T06:32:23;20.70;21.00
20610;DHT22;10463;52.378;9.688;2023-03-03T06:35:09;20.70;21.00
20610;DHT22;10463;52.378;9.688;2023-03-03T06:37:54;20.70;21.00
20610;DHT22;10463;52.378;9.688;2023-03-03T06:40:38;20.70;21.00
20610;DHT22;10463;52.378;9.688;2023-03-03T06:43:23;20.70;21.00
20610;DHT22;10463;52.378;9.688;2023-03-03T06:46:08;20.70;21.00
20610;DHT22;10463;52.378;9.688;2023-03-03T06:48:52;20.70;21.00
20610;DHT22;10463;52.378;9.688;2023-03-03T06:51:39;20.70;21.00
20610;DHT22;10463;52.378;9.688;2023-03-03T06:54:27;20.70;21.00
20610;DHT22;10463;52.378;9.688;2023-03-03T06:57:24;20.70;21.00
20610;DHT22;10463;52.378;9.688;2023-03-03T07:00:17;20.70;21.00
20610;DHT22;10463;52.378;9.688;2023-03-03T07:03:11;20.70;21.00
20610;DHT22;10463;52.378;9.688;2023-03-03T07:05:56;20.70;21.00
20610;DHT22;10463;52.378;9.688;2023-03-03T07:08:42;20.70;21.00
20610;DHT22;10463;52.378;9.688;2023-03-03T07:11:26;20.70;21.00
20610;DHT22;10463;52.378;9.688;2023-03-03T07:14:16;20.60;20.90
20610;DHT22;10463;52.378;9.688;2023-03-03T07:17:04;20.60;20.90
20610;DHT22;10463;52.378;9.688;2023-03-03T07:19:51;20.60;20.90
20610;DHT22;10463;52.378;9.688;2023-03-03T07:22:36;20.70;21.00
20610;DHT22;10463;52.378;9.688;2023-03-03T07:25:30;20.70;21.00
20610;DHT22;10463;52.378;9.688;2023-03-03T07:28:24;20.60;20.90
20610;DHT22;10463;52.378;9.688;2023-03-03T07:31:26;20.60;20.90
20610;DHT22;10463;52.378;9.688;2023-03-03T07:34:19;20.60;21.00
20610;DHT22;10463;52.378;9.688;2023-03-03T07:37:18;20.60;20.90
20610;DHT22;10463;52.378;9.688;2023-03-03T07:40:28;20.60;21.00
20610;DHT22;10463;52.378;9.688;2023-03-03T07:43:34;20.60;20.90
20610;DHT22;10463;52.378;9.688;2023-03-03T07:46:28;20.60;21.50
20610;DHT22;10463;52.378;9.688;2023-03-03T07:49:22;20.60;20.90
20610;DHT22;10463;52.378;9.688;2023-03-03T07:52:23;20.60;20.90
20610;DHT22;10463;52.378;9.688;2023-03-03T07:55:31;20.60;21.10
20610;DHT22;10463;52.378;9.688;2023-03-03T07:58:35;20.70;21.00
20610;DHT22;10463;52.378;9.688;2023-03-03T08:01:40;20.70;21.00
20610;DHT22;10463;52.378;9.688;2023-03-03T08:04:32;20.60;20.90
20610;DHT22;10463;52.378;9.688;2023-03-03T08:07:22;20.60;20.90
20610;DHT22;10463;52.378;9.688;2023-03-03T08:10:35;20.60;20.90
20610;DHT22;10463;52.378;9.688;2023-03-03T08:13:23;20.60;20.90
20610;DHT22;10463;52.378;9.688;2023-03-03T08:16:33;20.70;21.00
20610;DHT22;10463;52.378;9.688;2023-03-03T08:19:19;20.60;21.00
20610;DHT22;10463;52.378;9.688;2023-03-03T08:22:12;20.60;20.90
20610;DHT22;10463;52.378;9.688;2023-03-03T08:24:58;20.60;20.90
20610;DHT22;10463;52.378;9.688;2023-03-03T08:27:44;20.60;20.90
20610;DHT22;10463;52.378;9.688;2023-03-03T08:30:29;20.60;21.00
20610;DHT22;10463;52.378;9.688;2023-03-03T08:33:16;20.60;20.90
20610;DHT22;10463;52.378;9.688;2023-03-03T08:36:01;20.60;20.90
20610;DHT22;10463;52.378;9.688;2023-03-03T08:38:46;20.60;20.90
20610;DHT22;10463;52.378;9.688;2023-03-03T08:41:30;20.60;21.00
20610;DHT22;10463;52.378;9.688;2023-03-03T08:44:16;20.60;20.90
20610;DHT22;10463;52.378;9.688;2023-03-03T08:47:01;20.60;21.00
20610;DHT22;10463;52.378;9.688;2023-03-03T08:49:45;20.60;21.00
20610;DHT22;10463;52.378;9.688;2023-03-03T08:52:30;20.60;21.00
20610;DHT22;10463;52.378;9.688;2023-03-03T08:55:14;20.60;20.90
20610;DHT22;10463;52.378;9.688;2023-03-03T08:57:59;20.60;21.00
20610;DHT22;10463;52.378;9.688;2023-03-03T09:00:45;20.60;21.00
20610;DHT22;10463;52.378;9.688;2023-03-03T09:03:30;20.60;21.00
20610;DHT22;10463;52.378;9.688;2023-03-03T09:06:15;20.60;21.00
20610;DHT22;10463;52.378;9.688;2023-03-03T09:08:59;20.60;21.00
20610;DHT22;10463;52.378;9.688;2023-03-03T09:11:44;20.60;21.00
20610;DHT22;10463;52.378;9.688;2023-03-03T09:17:36;20.60;21.00
20610;DHT22;10463;52.378;9.688;2023-03-03T09:20:31;20.60;21.00
20610;DHT22;10463;52.378;9.688;2023-03-03T09:23:36;20.60;21.00
20610;DHT22;10463;52.378;9.688;2023-03-03T09:26:29;20.60;21.00
20610;DHT22;10463;52.378;9.688;2023-03-03T09:29:24;20.60;21.00
20610;DHT22;10463;52.378;9.688;2023-03-03T09:32:25;20.60;21.00
20610;DHT22;10463;52.378;9.688;2023-03-03T09:35:35;20.60;21.00
20610;DHT22;10463;52.378;9.688;2023-03-03T09:38:27;20.60;21.00
20610;DHT22;10463;52.378;9.688;2023-03-03T09:41:42;20.60;21.00
20610;DHT22;10463;52.378;9.688;2023-03-03T09:44:55;20.60;21.00
20610;DHT22;10463;52.378;9.688;2023-03-03T09:47:53;20.60;21.00
20610;DHT22;10463;52.378;9.688;2023-03-03T09:50:50;20.60;21.00
20610;DHT22;10463;52.378;9.688;2023-03-03T09:54:00;20.60;21.00
20610;DHT22;10463;52.378;9.688;2023-03-03T09:56:53;20.60;21.00
20610;DHT22;10463;52.378;9.688;2023-03-03T10:03:26;20.60;21.00
20610;DHT22;10463;52.378;9.688;2023-03-03T10:06:25;20.60;21.00
20610;DHT22;10463;52.378;9.688;2023-03-03T10:09:45;20.60;21.00
20610;DHT22;10463;52.378;9.688;2023-03-03T10:15:35;20.60;21.00
20610;DHT22;10463;52.378;9.688;2023-03-03T10:18:30;20.60;21.00
20610;DHT22;10463;52.378;9.688;2023-03-03T10:21:24;20.60;21.10
20610;DHT22;10463;52.378;9.688;2023-03-03T10:24:23;20.60;21.10
20610;DHT22;10463;52.378;9.688;2023-03-03T10:27:27;20.60;21.00
20610;DHT22;10463;52.378;9.688;2023-03-03T10:30:23;20.60;21.60
20610;DHT22;10463;52.378;9.688;2023-03-03T10:33:18;20.60;21.10
20610;DHT22;10463;52.378;9.688;2023-03-03T10:36:42;20.60;21.10
20610;DHT22;10463;52.378;9.688;2023-03-03T10:39:52;20.60;21.10
20610;DHT22;10463;52.378;9.688;2023-03-03T10:42:50;20.60;21.10
20610;DHT22;10463;52.378;9.688;2023-03-03T10:49:21;20.60;21.10
20610;DHT22;10463;52.378;9.688;2023-03-03T10:52:25;20.60;21.10
20610;DHT22;10463;52.378;9.688;2023-03-03T10:55:35;20.60;21.10
20610;DHT22;10463;52.378;9.688;2023-03-03T10:58:49;20.60;21.10
20610;DHT22;10463;52.378;9.688;2023-03-03T11:01:46;20.50;21.20
20610;DHT22;10463;52.378;9.688;2023-03-03T11:05:10;20.60;21.10
20610;DHT22;10463;52.378;9.688;2023-03-03T11:08:04;20.60;21.00
20610;DHT22;10463;52.378;9.688;2023-03-03T11:11:09;20.60;21.00
20610;DHT22;10463;52.378;9.688;2023-03-03T11:14:04;20.60;21.10
20610;DHT22;10463;52.378;9.688;2023-03-03T11:16:58;20.60;21.00
20610;DHT22;10463;52.378;9.688;2023-03-03T11:19:57;20.60;21.00
20610;DHT22;10463;52.378;9.688;2023-03-03T11:22:49;20.60;21.60
20610;DHT22;10463;52.378;9.688;2023-03-03T11:25:41;20.60;21.10
20610;DHT22;10463;52.378;9.688;2023-03-03T11:28:44;20.60;21.10
20610;DHT22;10463;52.378;9.688;2023-03-03T11:31:39;20.60;21.10
20610;DHT22;10463;52.378;9.688;2023-03-03T11:34:52;20.60;21.10
20610;DHT22;10463;52.378;9.688;2023-03-03T11:37:45;20.60;21.10
20610;DHT22;10463;52.378;9.688;2023-03-03T11:40:46;20.60;21.10
20610;DHT22;10463;52.378;9.688;2023-03-03T11:43:37;20.60;21.10
20610;DHT22;10463;52.378;9.688;2023-03-03T11:46:29;20.60;21.10
20610;DHT22;10463;52.378;9.688;2023-03-03T11:49:19;20.60;21.10
20610;DHT22;10463;52.378;9.688;2023-03-03T11:52:21;20.60;21.10
20610;DHT22;10463;52.378;9.688;2023-03-03T11:55:13;20.60;21.10
20610;DHT22;10463;52.378;9.688;2023-03-03T11:58:10;20.60;21.00
20610;DHT22;10463;52.378;9.688;2023-03-03T12:01:02;20.60;21.00
20610;DHT22;10463;52.378;9.688;2023-03-03T12:07:08;20.70;21.10
20610;DHT22;10463;52.378;9.688;2023-03-03T12:10:09;20.70;21.20
20610;DHT22;10463;52.378;9.688;2023-03-03T12:13:04;20.70;21.10
20610;DHT22;10463;52.378;9.688;2023-03-03T12:15:54;20.70;21.20
20610;DHT22;10463;52.378;9.688;2023-03-03T12:19:33;20.70;21.10
20610;DHT22;10463;52.378;9.688;2023-03-03T12:22:31;20.70;21.10
20610;DHT22;10463;52.378;9.688;2023-03-03T12:25:28;20.70;21.10
20610;DHT22;10463;52.378;9.688;2023-03-03T12:28:19;20.70;21.10
20610;DHT22;10463;52.378;9.688;2023-03-03T12:31:19;20.80;21.20
20610;DHT22;10463;52.378;9.688;2023-03-03T12:34:14;20.70;21.20
20610;DHT22;10463;52.378;9.688;2023-03-03T12:37:20;20.80;21.20
20610;DHT22;10463;52.378;9.688;2023-03-03T12:40:09;20.70;21.10
20610;DHT22;10463;52.378;9.688;2023-03-03T12:43:15;20.80;21.20
20610;DHT22;10463;52.378;9.688;2023-03-03T12:46:09;20.80;21.20
20610;DHT22;10463;52.378;9.688;2023-03-03T12:48:57;20.80;21.20
20610;DHT22;10463;52.378;9.688;2023-03-03T12:52:04;20.80;21.20
20610;DHT22;10463;52.378;9.688;2023-03-03T12:55:05;20.80;21.70
20610;DHT22;10463;52.378;9.688;2023-03-03T12:58:04;20.80;21.20
20610;DHT22;10463;52.378;9.688;2023-03-03T13:01:00;20.80;21.20
20610;DHT22;10463;52.378;9.688;2023-03-03T13:03:58;20.80;21.20
20610;DHT22;10463;52.378;9.688;2023-03-03T13:06:56;20.80;21.20
20610;DHT22;10463;52.378;9.688;2023-03-03T13:10:03;20.80;21.10
20610;DHT22;10463;52.378;9.688;2023-03-03T13:12:54;20.80;21.10
20610;DHT22;10463;52.378;9.688;2023-03-03T13:15:44;20.80;21.20
20610;DHT22;10463;52.378;9.688;2023-03-03T13:18:48;20.80;21.10
20610;DHT22;10463;52.378;9.688;2023-03-03T13:21:41;20.80;21.20
20610;DHT22;10463;52.378;9.688;2023-03-03T13:24:34;20.90;21.20
20610;DHT22;10463;52.378;9.688;2023-03-03T13:27:24;20.90;21.20
20610;DHT22;10463;52.378;9.688;2023-03-03T13:30:17;20.90;21.20
20610;DHT22;10463;52.378;9.688;2023-03-03T13:33:09;20.90;21.20
20610;DHT22;10463;52.378;9.688;2023-03-03T13:35:59;20.90;21.20
20610;DHT22;10463;52.378;9.688;2023-03-03T13:38:51;20.90;21.20
20610;DHT22;10463;52.378;9.688;2023-03-03T13:41:44;20.90;21.20
20610;DHT22;10463;52.378;9.688;2023-03-03T13:44:38;20.90;21.20
20610;DHT22;10463;52.378;9.688;2023-03-03T13:47:31;20.90;21.20
20610;DHT22;10463;52.378;9.688;2023-03-03T13:50:26;20.90;21.20
20610;DHT22;10463;52.378;9.688;2023-03-03T13:53:37;20.90;21.20
20610;DHT22;10463;52.378;9.688;2023-03-03T13:56:54;20.90;21.20
20610;DHT22;10463;52.378;9.688;2023-03-03T13:59:54;20.90;21.20
20610;DHT22;10463;52.378;9.688;2023-03-03T14:05:58;20.90;21.20
20610;DHT22;10463;52.378;9.688;2023-03-03T14:09:21;20.90;21.20
20610;DHT22;10463;52.378;9.688;2023-03-03T14:12:23;20.90;21.20
20610;DHT22;10463;52.378;9.688;2023-03-03T14:15:19;20.90;21.20
20610;DHT22;10463;52.378;9.688;2023-03-03T14:18:20;20.90;21.20
20610;DHT22;10463;52.378;9.688;2023-03-03T14:21:14;20.90;21.20
20610;DHT22;10463;52.378;9.688;2023-03-03T14:24:07;21.00;21.30
20610;DHT22;10463;52.378;9.688;2023-03-03T14:26:55;21.00;21.30
20610;DHT22;10463;52.378;9.688;2023-03-03T14:29:42;21.00;21.20
20610;DHT22;10463;52.378;9.688;2023-03-03T14:32:27;21.00;21.20
20610;DHT22;10463;52.378;9.688;2023-03-03T14:35:18;21.00;21.30
20610;DHT22;10463;52.378;9.688;2023-03-03T14:38:08;21.00;21.30
20610;DHT22;10463;52.378;9.688;2023-03-03T14:41:10;21.00;21.20
20610;DHT22;10463;52.378;9.688;2023-03-03T14:43:59;21.00;21.20
20610;DHT22;10463;52.378;9.688;2023-03-03T14:46:45;21.00;21.80
20610;DHT22;10463;52.378;9.688;2023-03-03T14:49:43;21.00;21.30
20610;DHT22;10463;52.378;9.688;2023-03-03T14:52:30;21.00;21.30
20610;DHT22;10463;52.378;9.688;2023-03-03T14:55:34;21.00;21.30
20610;DHT22;10463;52.378;9.688;2023-03-03T14:58:30;21.00;21.30
20610;DHT22;10463;52.378;9.688;2023-03-03T15:01:22;21.00;21.20
20610;DHT22;10463;52.378;9.688;2023-03-03T15:04:23;21.00;21.30
20610;DHT22;10463;52.378;9.688;2023-03-03T15:07:26;21.00;21.20
20610;DHT22;10463;52.378;9.688;2023-03-03T15:10:12;21.00;21.20
20610;DHT22;10463;52.378;9.688;2023-03-03T15:13:33;21.00;21.20
20610;DHT22;10463;52.378;9.688;2023-03-03T15:16:22;21.00;21.20
20610;DHT22;10463;52.378;9.688;2023-03-03T15:22:46;21.00;21.20
20610;DHT22;10463;52.378;9.688;2023-03-03T15:25:36;21.00;21.20
20610;DHT22;10463;52.378;9.688;2023-03-03T15:28:35;21.00;21.30
20610;DHT22;10463;52.378;9.688;2023-03-03T15:31:34;21.00;21.30
20610;DHT22;10463;52.378;9.688;2023-03-03T15:34:37;21.00;21.30
20610;DHT22;10463;52.378;9.688;2023-03-03T15:37:38;21.10;21.40
20610;DHT22;10463;52.378;9.688;2023-03-03T15:40:27;21.10;21.40
20610;DHT22;10463;52.378;9.688;2023-03-03T15:43:21;21.10;21.40
20610;DHT22;10463;52.378;9.688;2023-03-03T15:46:20;21.10;21.40
20610;DHT22;10463;52.378;9.688;2023-03-03T15:49:24;21.10;21.40
20610;DHT22;10463;52.378;9.688;2023-03-03T15:52:28;21.10;21.40
20610;DHT22;10463;52.378;9.688;2023-03-03T15:55:35;21.10;21.40
20610;DHT22;10463;52.378;9.688;2023-03-03T15:58:48;21.20;21.40
20610;DHT22;10463;52.378;9.688;2023-03-03T16:01:40;21.20;21.40
20610;DHT22;10463;52.378;9.688;2023-03-03T16:04:32;21.20;21.40
20610;DHT22;10463;52.378;9.688;2023-03-03T16:07:33;21.20;21.40
20610;DHT22;10463;52.378;9.688;2023-03-03T16:10:28;21.20;21.30
20610;DHT22;10463;52.378;9.688;2023-03-03T16:13:43;21.20;21.30
20610;DHT22;10463;52.378;9.688;2023-03-03T16:16:42;21.20;21.30
20610;DHT22;10463;52.378;9.688;2023-03-03T16:19:39;21.20;21.30
20610;DHT22;10463;52.378;9.688;2023-03-03T16:22:47;21.20;21.20
20610;DHT22;10463;52.378;9.688;2023-03-03T16:25:53;21.20;21.30
20610;DHT22;10463;52.378;9.688;2023-03-03T16:28:58;21.20;21.20
20610;DHT22;10463;52.378;9.688;2023-03-03T16:31:48;21.20;21.20
20610;DHT22;10463;52.378;9.688;2023-03-03T16:34:41;21.20;21.30
20610;DHT22;10463;52.378;9.688;2023-03-03T16:37:35;21.20;21.20
20610;DHT22;10463;52.378;9.688;2023-03-03T16:40:26;21.20;21.30
20610;DHT22;10463;52.378;9.688;2023-03-03T16:43:21;21.20;21.30
20610;DHT22;10463;52.378;9.688;2023-03-03T16:46:21;21.20;21.30
20610;DHT22;10463;52.378;9.688;2023-03-03T16:49:20;21.20;21.30
20610;DHT22;10463;52.378;9.688;2023-03-03T16:52:12;21.20;21.30
20610;DHT22;10463;52.378;9.688;2023-03-03T16:55:09;21.20;21.30
20610;DHT22;10463;52.378;9.688;2023-03-03T16:58:07;21.20;21.30
20610;DHT22;10463;52.378;9.688;2023-03-03T17:01:03;21.20;21.30
20610;DHT22;10463;52.378;9.688;2023-03-03T17:03:59;21.20;21.30
20610;DHT22;10463;52.378;9.688;2023-03-03T17:06:49;21.20;21.30
20610;DHT22;10463;52.378;9.688;2023-03-03T17:09:58;21.20;21.30
20610;DHT22;10463;52.378;9.688;2023-03-03T17:13:01;21.20;21.30
20610;DHT22;10463;52.378;9.688;2023-03-03T17:16:07;21.20;21.80
20610;DHT22;10463;52.378;9.688;2023-03-03T17:19:05;21.20;21.30
20610;DHT22;10463;52.378;9.688;2023-03-03T17:22:07;21.20;21.30
20610;DHT22;10463;52.378;9.688;2023-03-03T17:25:09;21.20;21.30
20610;DHT22;10463;52.378;9.688;2023-03-03T17:28:08;21.20;21.30
20610;DHT22;10463;52.378;9.688;2023-03-03T17:31:05;21.20;21.30
20610;DHT22;10463;52.378;9.688;2023-03-03T17:34:06;21.10;21.20
20610;DHT22;10463;52.378;9.688;2023-03-03T17:37:02;21.20;21.30
20610;DHT22;10463;52.378;9.688;2023-03-03T17:40:19;21.20;21.20
20610;DHT22;10463;52.378;9.688;2023-03-03T17:43:14;21.20;21.20
20610;DHT22;10463;52.378;9.688;2023-03-03T17:46:03;21.20;21.20
20610;DHT22;10463;52.378;9.688;2023-03-03T17:49:45;21.20;21.30
20610;DHT22;10463;52.378;9.688;2023-03-03T17:53:18;21.20;21.30
20610;DHT22;10463;52.378;9.688;2023-03-03T17:56:21;21.10;21.20
20610;DHT22;10463;52.378;9.688;2023-03-03T17:59:34;21.10;21.20
20610;DHT22;10463;52.378;9.688;2023-03-03T18:03:07;21.10;21.20
20610;DHT22;10463;52.378;9.688;2023-03-03T18:06:33;21.10;21.20
20610;DHT22;10463;52.378;9.688;2023-03-03T18:09:32;21.10;21.20
20610;DHT22;10463;52.378;9.688;2023-03-03T18:12:30;21.10;21.20
20610;DHT22;10463;52.378;9.688;2023-03-03T18:15:30;21.10;21.20
20610;DHT22;10463;52.378;9.688;2023-03-03T18:18:36;21.10;21.20
20610;DHT22;10463;52.378;9.688;2023-03-03T18:21:27;21.10;21.20
20610;DHT22;10463;52.378;9.688;2023-03-03T18:24:34;21.10;21.30
20610;DHT22;10463;52.378;9.688;2023-03-03T18:27:37;21.10;21.20
20610;DHT22;10463;52.378;9.688;2023-03-03T18:30:28;21.10;21.30
20610;DHT22;10463;52.378;9.688;2023-03-03T18:33:15;21.10;21.20
20610;DHT22;10463;52.378;9.688;2023-03-03T18:36:35;21.10;21.20
20610;DHT22;10463;52.378;9.688;2023-03-03T18:39:41;21.10;21.20